Nomini Grove, Virginia
Current Conditions -  °F | °C
As of 3:55 PM on Friday 19 Dec 2014 (Local Time) from KXSA Reporting Station
Clear Clear  
Wind Chill: 38°   Ceiling: Unl
Heat Index: 42°   Visibility: 10mi
Dew Point: 21°   Wind: 6mph
Humidity: 43%   Direction: 320°NW
Pressure: 30.17"   Gusts: NA
Location:  37.967°N, 76.7668°W
Report Text: KXSA 192055Z AUTO 32005KT 10SM CLR 06/M06 A3017 RMK AO2 T00551061
Loading
Personal Weather Stations






























Interactive Weather Map New forecast layout! Learn more

10-Day Weather Forecast

Advertisements
Track Severe Weather on mobile